sensor_id;sensor_type;location;lat;lon;timestamp;P1;durP1;ratioP1;P2;durP2;ratioP2
20679;SDS011;10499;47.494;7.608;2022-08-01T00:00:38;0.10;;;0.10;;
20679;SDS011;10499;47.494;7.608;2022-08-01T00:03:04;0.10;;;0.10;;
20679;SDS011;10499;47.494;7.608;2022-08-01T00:05:30;0.08;;;0.08;;
20679;SDS011;10499;47.494;7.608;2022-08-01T00:07:55;0.00;;;0.00;;
20679;SDS011;10499;47.494;7.608;2022-08-01T00:10:21;0.00;;;0.00;;
20679;SDS011;10499;47.494;7.608;2022-08-01T00:12:47;0.10;;;0.10;;
20679;SDS011;10499;47.494;7.608;2022-08-01T00:15:13;0.00;;;0.00;;
20679;SDS011;10499;47.494;7.608;2022-08-01T00:17:41;0.10;;;0.10;;
20679;SDS011;10499;47.494;7.608;2022-08-01T00:20:08;0.10;;;0.10;;
20679;SDS011;10499;47.494;7.608;2022-08-01T00:22:35;0.00;;;0.00;;
20679;SDS011;10499;47.494;7.608;2022-08-01T00:25:00;0.10;;;0.10;;
20679;SDS011;10499;47.494;7.608;2022-08-01T00:27:27;0.00;;;0.00;;
20679;SDS011;10499;47.494;7.608;2022-08-01T00:29:53;0.10;;;0.10;;
20679;SDS011;10499;47.494;7.608;2022-08-01T00:32:18;0.10;;;0.10;;
20679;SDS011;10499;47.494;7.608;2022-08-01T00:34:44;0.10;;;0.10;;
20679;SDS011;10499;47.494;7.608;2022-08-01T00:37:10;0.10;;;0.10;;
20679;SDS011;10499;47.494;7.608;2022-08-01T00:39:35;0.10;;;0.10;;
20679;SDS011;10499;47.494;7.608;2022-08-01T00:42:08;0.10;;;0.10;;
20679;SDS011;10499;47.494;7.608;2022-08-01T00:44:35;0.10;;;0.10;;
20679;SDS011;10499;47.494;7.608;2022-08-01T00:47:01;0.10;;;0.10;;
20679;SDS011;10499;47.494;7.608;2022-08-01T00:49:27;0.10;;;0.10;;
20679;SDS011;10499;47.494;7.608;2022-08-01T00:51:53;0.10;;;0.10;;
20679;SDS011;10499;47.494;7.608;2022-08-01T00:54:20;0.10;;;0.10;;
20679;SDS011;10499;47.494;7.608;2022-08-01T00:56:45;0.00;;;0.00;;
20679;SDS011;10499;47.494;7.608;2022-08-01T00:59:12;0.00;;;0.00;;
20679;SDS011;10499;47.494;7.608;2022-08-01T01:01:40;0.00;;;0.00;;
20679;SDS011;10499;47.494;7.608;2022-08-01T01:04:06;0.10;;;0.10;;
20679;SDS011;10499;47.494;7.608;2022-08-01T01:06:44;0.00;;;0.00;;
20679;SDS011;10499;47.494;7.608;2022-08-01T01:09:56;0.10;;;0.10;;
20679;SDS011;10499;47.494;7.608;2022-08-01T01:15:35;0.00;;;0.00;;
20679;SDS011;10499;47.494;7.608;2022-08-01T01:18:10;0.05;;;0.05;;
20679;SDS011;10499;47.494;7.608;2022-08-01T01:20:47;0.10;;;0.10;;
20679;SDS011;10499;47.494;7.608;2022-08-01T01:29:24;0.10;;;0.10;;
20679;SDS011;10499;47.494;7.608;2022-08-01T01:31:55;0.10;;;0.10;;
20679;SDS011;10499;47.494;7.608;2022-08-01T01:34:27;0.10;;;0.10;;
20679;SDS011;10499;47.494;7.608;2022-08-01T01:36:53;0.10;;;0.10;;
20679;SDS011;10499;47.494;7.608;2022-08-01T01:39:33;0.10;;;0.10;;
20679;SDS011;10499;47.494;7.608;2022-08-01T01:42:02;0.10;;;0.10;;
20679;SDS011;10499;47.494;7.608;2022-08-01T01:44:30;0.10;;;0.10;;
20679;SDS011;10499;47.494;7.608;2022-08-01T01:46:57;0.10;;;0.10;;
20679;SDS011;10499;47.494;7.608;2022-08-01T01:49:25;0.00;;;0.00;;
20679;SDS011;10499;47.494;7.608;2022-08-01T01:51:53;0.10;;;0.10;;
20679;SDS011;10499;47.494;7.608;2022-08-01T01:54:21;0.10;;;0.10;;
20679;SDS011;10499;47.494;7.608;2022-08-01T01:56:50;0.10;;;0.10;;
20679;SDS011;10499;47.494;7.608;2022-08-01T01:59:18;0.10;;;0.10;;
20679;SDS011;10499;47.494;7.608;2022-08-01T02:01:47;0.10;;;0.10;;
20679;SDS011;10499;47.494;7.608;2022-08-01T02:04:14;0.10;;;0.10;;
20679;SDS011;10499;47.494;7.608;2022-08-01T02:06:42;0.10;;;0.10;;
20679;SDS011;10499;47.494;7.608;2022-08-01T02:09:10;0.10;;;0.10;;
20679;SDS011;10499;47.494;7.608;2022-08-01T02:11:36;0.10;;;0.10;;
20679;SDS011;10499;47.494;7.608;2022-08-01T02:14:04;0.10;;;0.10;;
20679;SDS011;10499;47.494;7.608;2022-08-01T02:16:33;0.10;;;0.10;;
20679;SDS011;10499;47.494;7.608;2022-08-01T02:19:00;0.10;;;0.10;;
20679;SDS011;10499;47.494;7.608;2022-08-01T02:21:28;0.10;;;0.10;;
20679;SDS011;10499;47.494;7.608;2022-08-01T02:24:04;0.00;;;0.00;;
20679;SDS011;10499;47.494;7.608;2022-08-01T02:26:38;0.10;;;0.10;;
20679;SDS011;10499;47.494;7.608;2022-08-01T02:29:06;0.10;;;0.10;;
20679;SDS011;10499;47.494;7.608;2022-08-01T02:31:35;0.10;;;0.10;;
20679;SDS011;10499;47.494;7.608;2022-08-01T02:34:06;0.10;;;0.10;;
20679;SDS011;10499;47.494;7.608;2022-08-01T02:36:35;0.10;;;0.10;;
20679;SDS011;10499;47.494;7.608;2022-08-01T02:39:12;0.10;;;0.10;;
20679;SDS011;10499;47.494;7.608;2022-08-01T02:41:41;0.10;;;0.10;;
20679;SDS011;10499;47.494;7.608;2022-08-01T02:44:10;0.10;;;0.10;;
20679;SDS011;10499;47.494;7.608;2022-08-01T02:46:43;0.10;;;0.10;;
20679;SDS011;10499;47.494;7.608;2022-08-01T02:49:16;0.10;;;0.10;;
20679;SDS011;10499;47.494;7.608;2022-08-01T02:51:46;0.63;;;0.10;;
20679;SDS011;10499;47.494;7.608;2022-08-01T02:54:13;0.10;;;0.10;;
20679;SDS011;10499;47.494;7.608;2022-08-01T02:56:41;0.10;;;0.10;;
20679;SDS011;10499;47.494;7.608;2022-08-01T02:59:10;0.10;;;0.10;;
20679;SDS011;10499;47.494;7.608;2022-08-01T03:01:39;0.10;;;0.10;;
20679;SDS011;10499;47.494;7.608;2022-08-01T03:04:07;0.10;;;0.10;;
20679;SDS011;10499;47.494;7.608;2022-08-01T03:06:35;0.10;;;0.10;;
20679;SDS011;10499;47.494;7.608;2022-08-01T03:09:02;0.10;;;0.10;;
20679;SDS011;10499;47.494;7.608;2022-08-01T03:11:31;0.10;;;0.10;;
20679;SDS011;10499;47.494;7.608;2022-08-01T03:13:58;0.10;;;0.10;;
20679;SDS011;10499;47.494;7.608;2022-08-01T03:16:26;0.10;;;0.10;;
20679;SDS011;10499;47.494;7.608;2022-08-01T03:18:54;0.10;;;0.10;;
20679;SDS011;10499;47.494;7.608;2022-08-01T03:21:22;0.10;;;0.10;;
20679;SDS011;10499;47.494;7.608;2022-08-01T03:23:49;0.10;;;0.10;;
20679;SDS011;10499;47.494;7.608;2022-08-01T03:26:18;0.10;;;0.10;;
20679;SDS011;10499;47.494;7.608;2022-08-01T03:28:44;0.10;;;0.10;;
20679;SDS011;10499;47.494;7.608;2022-08-01T03:31:12;0.10;;;0.10;;
20679;SDS011;10499;47.494;7.608;2022-08-01T03:33:39;0.10;;;0.10;;
20679;SDS011;10499;47.494;7.608;2022-08-01T03:36:05;0.10;;;0.10;;
20679;SDS011;10499;47.494;7.608;2022-08-01T03:38:34;0.10;;;0.10;;
20679;SDS011;10499;47.494;7.608;2022-08-01T03:41:06;0.10;;;0.10;;
20679;SDS011;10499;47.494;7.608;2022-08-01T03:43:46;0.10;;;0.10;;
20679;SDS011;10499;47.494;7.608;2022-08-01T03:46:17;0.10;;;0.10;;
20679;SDS011;10499;47.494;7.608;2022-08-01T03:48:47;0.10;;;0.10;;
20679;SDS011;10499;47.494;7.608;2022-08-01T03:51:15;0.10;;;0.10;;
20679;SDS011;10499;47.494;7.608;2022-08-01T03:53:43;0.10;;;0.10;;
20679;SDS011;10499;47.494;7.608;2022-08-01T03:56:12;0.10;;;0.10;;
20679;SDS011;10499;47.494;7.608;2022-08-01T03:58:42;0.10;;;0.10;;
20679;SDS011;10499;47.494;7.608;2022-08-01T04:01:09;0.10;;;0.10;;
20679;SDS011;10499;47.494;7.608;2022-08-01T04:03:35;0.10;;;0.10;;
20679;SDS011;10499;47.494;7.608;2022-08-01T04:06:05;0.10;;;0.10;;
20679;SDS011;10499;47.494;7.608;2022-08-01T04:08:37;0.10;;;0.10;;
20679;SDS011;10499;47.494;7.608;2022-08-01T04:11:03;0.10;;;0.10;;
20679;SDS011;10499;47.494;7.608;2022-08-01T04:13:30;0.10;;;0.10;;
20679;SDS011;10499;47.494;7.608;2022-08-01T04:15:56;0.10;;;0.10;;
20679;SDS011;10499;47.494;7.608;2022-08-01T04:18:22;0.10;;;0.10;;
20679;SDS011;10499;47.494;7.608;2022-08-01T04:20:47;0.10;;;0.10;;
20679;SDS011;10499;47.494;7.608;2022-08-01T04:23:14;0.10;;;0.10;;
20679;SDS011;10499;47.494;7.608;2022-08-01T04:25:42;0.10;;;0.10;;
20679;SDS011;10499;47.494;7.608;2022-08-01T04:28:10;0.10;;;0.10;;
20679;SDS011;10499;47.494;7.608;2022-08-01T04:30:41;0.10;;;0.10;;
20679;SDS011;10499;47.494;7.608;2022-08-01T04:33:10;0.10;;;0.10;;
20679;SDS011;10499;47.494;7.608;2022-08-01T04:35:41;0.10;;;0.10;;
20679;SDS011;10499;47.494;7.608;2022-08-01T04:38:10;0.10;;;0.10;;
20679;SDS011;10499;47.494;7.608;2022-08-01T04:40:38;0.10;;;0.10;;
20679;SDS011;10499;47.494;7.608;2022-08-01T04:43:06;0.08;;;0.08;;
20679;SDS011;10499;47.494;7.608;2022-08-01T04:45:32;0.10;;;0.10;;
20679;SDS011;10499;47.494;7.608;2022-08-01T04:47:59;0.10;;;0.10;;
20679;SDS011;10499;47.494;7.608;2022-08-01T04:50:25;0.10;;;0.10;;
20679;SDS011;10499;47.494;7.608;2022-08-01T04:52:52;0.10;;;0.10;;
20679;SDS011;10499;47.494;7.608;2022-08-01T04:55:17;0.10;;;0.10;;
20679;SDS011;10499;47.494;7.608;2022-08-01T04:57:43;0.10;;;0.10;;
20679;SDS011;10499;47.494;7.608;2022-08-01T05:00:11;0.10;;;0.10;;
20679;SDS011;10499;47.494;7.608;2022-08-01T05:02:37;0.10;;;0.10;;
20679;SDS011;10499;47.494;7.608;2022-08-01T05:05:03;0.10;;;0.10;;
20679;SDS011;10499;47.494;7.608;2022-08-01T05:07:31;0.10;;;0.10;;
20679;SDS011;10499;47.494;7.608;2022-08-01T05:09:57;0.10;;;0.10;;
20679;SDS011;10499;47.494;7.608;2022-08-01T05:12:23;0.10;;;0.10;;
20679;SDS011;10499;47.494;7.608;2022-08-01T05:14:49;0.10;;;0.10;;
20679;SDS011;10499;47.494;7.608;2022-08-01T05:17:14;0.10;;;0.10;;
20679;SDS011;10499;47.494;7.608;2022-08-01T05:19:41;0.10;;;0.10;;
20679;SDS011;10499;47.494;7.608;2022-08-01T05:22:08;0.10;;;0.10;;
20679;SDS011;10499;47.494;7.608;2022-08-01T05:24:35;0.10;;;0.10;;
20679;SDS011;10499;47.494;7.608;2022-08-01T05:27:02;0.10;;;0.10;;
20679;SDS011;10499;47.494;7.608;2022-08-01T05:29:28;0.10;;;0.10;;
20679;SDS011;10499;47.494;7.608;2022-08-01T05:31:54;0.10;;;0.10;;
20679;SDS011;10499;47.494;7.608;2022-08-01T05:34:19;0.10;;;0.10;;
20679;SDS011;10499;47.494;7.608;2022-08-01T05:36:45;0.10;;;0.10;;
20679;SDS011;10499;47.494;7.608;2022-08-01T05:39:12;0.10;;;0.10;;
20679;SDS011;10499;47.494;7.608;2022-08-01T05:41:38;0.10;;;0.10;;
20679;SDS011;10499;47.494;7.608;2022-08-01T05:44:04;0.10;;;0.10;;
20679;SDS011;10499;47.494;7.608;2022-08-01T05:46:30;0.10;;;0.10;;
20679;SDS011;10499;47.494;7.608;2022-08-01T05:48:56;0.10;;;0.10;;
20679;SDS011;10499;47.494;7.608;2022-08-01T05:51:23;0.10;;;0.10;;
20679;SDS011;10499;47.494;7.608;2022-08-01T05:53:49;0.10;;;0.10;;
20679;SDS011;10499;47.494;7.608;2022-08-01T05:56:15;0.10;;;0.10;;
20679;SDS011;10499;47.494;7.608;2022-08-01T05:58:40;0.00;;;0.00;;
20679;SDS011;10499;47.494;7.608;2022-08-01T06:01:06;0.10;;;0.10;;
20679;SDS011;10499;47.494;7.608;2022-08-01T06:03:32;0.10;;;0.10;;
20679;SDS011;10499;47.494;7.608;2022-08-01T06:05:58;0.10;;;0.10;;
20679;SDS011;10499;47.494;7.608;2022-08-01T06:08:24;0.10;;;0.10;;
20679;SDS011;10499;47.494;7.608;2022-08-01T06:10:50;0.10;;;0.10;;
20679;SDS011;10499;47.494;7.608;2022-08-01T06:13:16;0.10;;;0.10;;
20679;SDS011;10499;47.494;7.608;2022-08-01T06:15:43;0.10;;;0.10;;
20679;SDS011;10499;47.494;7.608;2022-08-01T06:18:08;0.10;;;0.10;;
20679;SDS011;10499;47.494;7.608;2022-08-01T06:20:34;0.10;;;0.10;;
20679;SDS011;10499;47.494;7.608;2022-08-01T06:22:59;0.00;;;0.00;;
20679;SDS011;10499;47.494;7.608;2022-08-01T06:25:25;0.10;;;0.10;;
20679;SDS011;10499;47.494;7.608;2022-08-01T06:27:51;0.03;;;0.03;;
20679;SDS011;10499;47.494;7.608;2022-08-01T06:30:16;0.10;;;0.10;;
20679;SDS011;10499;47.494;7.608;2022-08-01T06:32:42;0.10;;;0.10;;
20679;SDS011;10499;47.494;7.608;2022-08-01T06:35:07;0.10;;;0.10;;
20679;SDS011;10499;47.494;7.608;2022-08-01T06:37:33;0.10;;;0.10;;
20679;SDS011;10499;47.494;7.608;2022-08-01T06:40:06;0.00;;;0.00;;
20679;SDS011;10499;47.494;7.608;2022-08-01T06:42:35;0.00;;;0.00;;
20679;SDS011;10499;47.494;7.608;2022-08-01T06:45:04;0.10;;;0.10;;
20679;SDS011;10499;47.494;7.608;2022-08-01T06:47:31;0.10;;;0.10;;
20679;SDS011;10499;47.494;7.608;2022-08-01T06:49:57;0.10;;;0.10;;
20679;SDS011;10499;47.494;7.608;2022-08-01T06:52:22;0.10;;;0.10;;
20679;SDS011;10499;47.494;7.608;2022-08-01T06:54:48;0.10;;;0.10;;
20679;SDS011;10499;47.494;7.608;2022-08-01T06:57:13;0.10;;;0.10;;
20679;SDS011;10499;47.494;7.608;2022-08-01T06:59:39;0.00;;;0.00;;
20679;SDS011;10499;47.494;7.608;2022-08-01T07:02:05;0.10;;;0.10;;
20679;SDS011;10499;47.494;7.608;2022-08-01T07:04:31;0.10;;;0.10;;
20679;SDS011;10499;47.494;7.608;2022-08-01T07:06:57;0.10;;;0.10;;
20679;SDS011;10499;47.494;7.608;2022-08-01T07:09:22;0.10;;;0.10;;
20679;SDS011;10499;47.494;7.608;2022-08-01T07:11:48;0.10;;;0.10;;
20679;SDS011;10499;47.494;7.608;2022-08-01T07:14:15;0.10;;;0.10;;
20679;SDS011;10499;47.494;7.608;2022-08-01T07:16:41;0.10;;;0.10;;
20679;SDS011;10499;47.494;7.608;2022-08-01T07:19:06;0.10;;;0.10;;
20679;SDS011;10499;47.494;7.608;2022-08-01T07:21:33;0.00;;;0.00;;
20679;SDS011;10499;47.494;7.608;2022-08-01T07:23:58;0.10;;;0.10;;
20679;SDS011;10499;47.494;7.608;2022-08-01T07:26:24;0.10;;;0.10;;
20679;SDS011;10499;47.494;7.608;2022-08-01T07:28:49;0.10;;;0.10;;
20679;SDS011;10499;47.494;7.608;2022-08-01T07:31:15;0.10;;;0.10;;
20679;SDS011;10499;47.494;7.608;2022-08-01T07:33:41;0.00;;;0.00;;
20679;SDS011;10499;47.494;7.608;2022-08-01T07:36:07;0.10;;;0.10;;
20679;SDS011;10499;47.494;7.608;2022-08-01T07:38:32;0.00;;;0.00;;
20679;SDS011;10499;47.494;7.608;2022-08-01T07:40:58;0.10;;;0.10;;
20679;SDS011;10499;47.494;7.608;2022-08-01T07:43:24;0.00;;;0.00;;
20679;SDS011;10499;47.494;7.608;2022-08-01T07:45:49;0.08;;;0.08;;
20679;SDS011;10499;47.494;7.608;2022-08-01T07:48:15;0.10;;;0.10;;
20679;SDS011;10499;47.494;7.608;2022-08-01T07:50:41;0.00;;;0.00;;
20679;SDS011;10499;47.494;7.608;2022-08-01T07:53:06;0.10;;;0.10;;
20679;SDS011;10499;47.494;7.608;2022-08-01T07:55:32;0.10;;;0.10;;
20679;SDS011;10499;47.494;7.608;2022-08-01T07:57:57;0.00;;;0.00;;
20679;SDS011;10499;47.494;7.608;2022-08-01T08:00:24;0.10;;;0.10;;
20679;SDS011;10499;47.494;7.608;2022-08-01T08:02:49;0.10;;;0.10;;
20679;SDS011;10499;47.494;7.608;2022-08-01T08:05:15;0.00;;;0.00;;
20679;SDS011;10499;47.494;7.608;2022-08-01T08:07:41;0.10;;;0.10;;
20679;SDS011;10499;47.494;7.608;2022-08-01T08:10:06;0.10;;;0.10;;
20679;SDS011;10499;47.494;7.608;2022-08-01T08:12:32;0.10;;;0.10;;
20679;SDS011;10499;47.494;7.608;2022-08-01T08:14:58;0.10;;;0.10;;
20679;SDS011;10499;47.494;7.608;2022-08-01T08:17:25;0.10;;;0.10;;
20679;SDS011;10499;47.494;7.608;2022-08-01T08:19:51;0.10;;;0.10;;
20679;SDS011;10499;47.494;7.608;2022-08-01T08:22:16;0.00;;;0.00;;
20679;SDS011;10499;47.494;7.608;2022-08-01T08:24:42;0.10;;;0.10;;
20679;SDS011;10499;47.494;7.608;2022-08-01T08:27:08;0.10;;;0.10;;
20679;SDS011;10499;47.494;7.608;2022-08-01T08:29:34;0.00;;;0.00;;
20679;SDS011;10499;47.494;7.608;2022-08-01T08:32:00;0.10;;;0.10;;
20679;SDS011;10499;47.494;7.608;2022-08-01T08:34:26;0.10;;;0.10;;
20679;SDS011;10499;47.494;7.608;2022-08-01T08:36:53;0.10;;;0.10;;
20679;SDS011;10499;47.494;7.608;2022-08-01T08:39:20;0.10;;;0.10;;
20679;SDS011;10499;47.494;7.608;2022-08-01T08:41:46;0.00;;;0.00;;
20679;SDS011;10499;47.494;7.608;2022-08-01T08:44:12;0.00;;;0.00;;
20679;SDS011;10499;47.494;7.608;2022-08-01T08:46:40;0.10;;;0.10;;
20679;SDS011;10499;47.494;7.608;2022-08-01T08:49:12;0.10;;;0.10;;
20679;SDS011;10499;47.494;7.608;2022-08-01T08:51:42;0.00;;;0.00;;
20679;SDS011;10499;47.494;7.608;2022-08-01T08:54:10;0.00;;;0.00;;
20679;SDS011;10499;47.494;7.608;2022-08-01T08:56:39;0.00;;;0.00;;
20679;SDS011;10499;47.494;7.608;2022-08-01T08:59:07;0.10;;;0.10;;
20679;SDS011;10499;47.494;7.608;2022-08-01T09:01:33;0.00;;;0.00;;
20679;SDS011;10499;47.494;7.608;2022-08-01T09:04:00;0.00;;;0.00;;
20679;SDS011;10499;47.494;7.608;2022-08-01T09:06:27;0.00;;;0.00;;
20679;SDS011;10499;47.494;7.608;2022-08-01T09:08:54;0.00;;;0.00;;
20679;SDS011;10499;47.494;7.608;2022-08-01T09:11:20;0.00;;;0.00;;
20679;SDS011;10499;47.494;7.608;2022-08-01T09:14:06;0.00;;;0.00;;
20679;SDS011;10499;47.494;7.608;2022-08-01T09:16:35;0.00;;;0.00;;
20679;SDS011;10499;47.494;7.608;2022-08-01T09:19:10;0.00;;;0.00;;
20679;SDS011;10499;47.494;7.608;2022-08-01T09:21:38;0.00;;;0.00;;
20679;SDS011;10499;47.494;7.608;2022-08-01T09:24:12;0.00;;;0.00;;
20679;SDS011;10499;47.494;7.608;2022-08-01T09:26:39;0.00;;;0.00;;
20679;SDS011;10499;47.494;7.608;2022-08-01T09:29:05;0.00;;;0.00;;
20679;SDS011;10499;47.494;7.608;2022-08-01T09:31:42;0.10;;;0.10;;
20679;SDS011;10499;47.494;7.608;2022-08-01T09:34:09;0.10;;;0.10;;
20679;SDS011;10499;47.494;7.608;2022-08-01T09:36:49;0.10;;;0.10;;
20679;SDS011;10499;47.494;7.608;2022-08-01T09:39:17;0.10;;;0.10;;
20679;SDS011;10499;47.494;7.608;2022-08-01T09:41:44;0.20;;;0.20;;
20679;SDS011;10499;47.494;7.608;2022-08-01T09:44:10;0.20;;;0.20;;
20679;SDS011;10499;47.494;7.608;2022-08-01T09:46:36;0.30;;;0.30;;
20679;SDS011;10499;47.494;7.608;2022-08-01T09:49:26;0.20;;;0.20;;
20679;SDS011;10499;47.494;7.608;2022-08-01T09:51:56;0.30;;;0.30;;
20679;SDS011;10499;47.494;7.608;2022-08-01T09:54:30;0.30;;;0.30;;
20679;SDS011;10499;47.494;7.608;2022-08-01T09:57:13;0.30;;;0.30;;
20679;SDS011;10499;47.494;7.608;2022-08-01T09:59:42;0.30;;;0.30;;
20679;SDS011;10499;47.494;7.608;2022-08-01T10:02:13;0.30;;;0.30;;
20679;SDS011;10499;47.494;7.608;2022-08-01T10:04:51;0.30;;;0.30;;
20679;SDS011;10499;47.494;7.608;2022-08-01T10:07:17;0.30;;;0.30;;
20679;SDS011;10499;47.494;7.608;2022-08-01T10:09:44;0.30;;;0.30;;
20679;SDS011;10499;47.494;7.608;2022-08-01T10:12:11;0.30;;;0.30;;
20679;SDS011;10499;47.494;7.608;2022-08-01T10:14:39;0.20;;;0.20;;
20679;SDS011;10499;47.494;7.608;2022-08-01T10:17:06;0.20;;;0.20;;
20679;SDS011;10499;47.494;7.608;2022-08-01T10:19:34;0.30;;;0.30;;
20679;SDS011;10499;47.494;7.608;2022-08-01T10:22:00;0.30;;;0.30;;
20679;SDS011;10499;47.494;7.608;2022-08-01T10:24:29;0.30;;;0.30;;
20679;SDS011;10499;47.494;7.608;2022-08-01T10:26:56;0.30;;;0.30;;
20679;SDS011;10499;47.494;7.608;2022-08-01T10:29:28;0.30;;;0.30;;
20679;SDS011;10499;47.494;7.608;2022-08-01T10:32:00;0.20;;;0.20;;
20679;SDS011;10499;47.494;7.608;2022-08-01T10:34:27;0.20;;;0.20;;
20679;SDS011;10499;47.494;7.608;2022-08-01T10:36:54;0.20;;;0.20;;
20679;SDS011;10499;47.494;7.608;2022-08-01T10:39:20;0.20;;;0.20;;
20679;SDS011;10499;47.494;7.608;2022-08-01T10:41:46;0.20;;;0.20;;
20679;SDS011;10499;47.494;7.608;2022-08-01T10:44:12;0.20;;;0.20;;
20679;SDS011;10499;47.494;7.608;2022-08-01T10:46:38;0.22;;;0.22;;
20679;SDS011;10499;47.494;7.608;2022-08-01T10:49:09;0.20;;;0.20;;
20679;SDS011;10499;47.494;7.608;2022-08-01T10:51:38;0.20;;;0.20;;
20679;SDS011;10499;47.494;7.608;2022-08-01T10:54:07;0.30;;;0.30;;
20679;SDS011;10499;47.494;7.608;2022-08-01T10:56:44;0.22;;;0.22;;
20679;SDS011;10499;47.494;7.608;2022-08-01T10:59:20;0.28;;;0.28;;
20679;SDS011;10499;47.494;7.608;2022-08-01T11:01:54;0.20;;;0.20;;
20679;SDS011;10499;47.494;7.608;2022-08-01T11:07:22;0.30;;;0.30;;
20679;SDS011;10499;47.494;7.608;2022-08-01T11:10:09;0.30;;;0.30;;
20679;SDS011;10499;47.494;7.608;2022-08-01T11:12:41;0.30;;;0.30;;
20679;SDS011;10499;47.494;7.608;2022-08-01T11:17:40;0.30;;;0.30;;
20679;SDS011;10499;47.494;7.608;2022-08-01T11:20:14;0.40;;;0.40;;
20679;SDS011;10499;47.494;7.608;2022-08-01T11:28:24;0.50;;;0.50;;
20679;SDS011;10499;47.494;7.608;2022-08-01T11:38:37;1.10;;;1.10;;
20679;SDS011;10499;47.494;7.608;2022-08-01T11:43:57;0.70;;;0.70;;
20679;SDS011;10499;47.494;7.608;2022-08-01T11:51:57;0.30;;;0.30;;
20679;SDS011;10499;47.494;7.608;2022-08-01T11:54:29;0.20;;;0.20;;
20679;SDS011;10499;47.494;7.608;2022-08-01T11:56:57;0.10;;;0.10;;
20679;SDS011;10499;47.494;7.608;2022-08-01T11:59:24;0.20;;;0.20;;
20679;SDS011;10499;47.494;7.608;2022-08-01T12:01:50;0.30;;;0.30;;
20679;SDS011;10499;47.494;7.608;2022-08-01T12:04:16;0.30;;;0.30;;
20679;SDS011;10499;47.494;7.608;2022-08-01T12:06:41;0.30;;;0.30;;
20679;SDS011;10499;47.494;7.608;2022-08-01T12:09:17;0.30;;;0.30;;
20679;SDS011;10499;47.494;7.608;2022-08-01T12:11:44;0.30;;;0.30;;
20679;SDS011;10499;47.494;7.608;2022-08-01T12:14:15;0.30;;;0.30;;
20679;SDS011;10499;47.494;7.608;2022-08-01T12:16:51;0.30;;;0.30;;
20679;SDS011;10499;47.494;7.608;2022-08-01T12:19:19;0.30;;;0.30;;
20679;SDS011;10499;47.494;7.608;2022-08-01T12:22:08;0.20;;;0.20;;
20679;SDS011;10499;47.494;7.608;2022-08-01T12:24:34;0.32;;;0.32;;
20679;SDS011;10499;47.494;7.608;2022-08-01T12:27:01;0.20;;;0.20;;
20679;SDS011;10499;47.494;7.608;2022-08-01T12:29:30;0.20;;;0.20;;
20679;SDS011;10499;47.494;7.608;2022-08-01T12:32:20;0.10;;;0.10;;
20679;SDS011;10499;47.494;7.608;2022-08-01T12:35:01;0.20;;;0.20;;
20679;SDS011;10499;47.494;7.608;2022-08-01T12:37:35;0.20;;;0.20;;
20679;SDS011;10499;47.494;7.608;2022-08-01T12:40:08;0.15;;;0.15;;
20679;SDS011;10499;47.494;7.608;2022-08-01T12:42:37;0.10;;;0.10;;
20679;SDS011;10499;47.494;7.608;2022-08-01T12:45:04;0.10;;;0.10;;
20679;SDS011;10499;47.494;7.608;2022-08-01T12:47:33;0.10;;;0.10;;
20679;SDS011;10499;47.494;7.608;2022-08-01T12:50:02;0.10;;;0.10;;
20679;SDS011;10499;47.494;7.608;2022-08-01T12:52:31;0.10;;;0.10;;
20679;SDS011;10499;47.494;7.608;2022-08-01T12:55:07;0.10;;;0.10;;
20679;SDS011;10499;47.494;7.608;2022-08-01T12:57:36;0.10;;;0.10;;
20679;SDS011;10499;47.494;7.608;2022-08-01T13:00:07;0.00;;;0.00;;
20679;SDS011;10499;47.494;7.608;2022-08-01T13:02:34;0.00;;;0.00;;
20679;SDS011;10499;47.494;7.608;2022-08-01T13:05:00;0.10;;;0.10;;
20679;SDS011;10499;47.494;7.608;2022-08-01T13:07:40;0.00;;;0.00;;
20679;SDS011;10499;47.494;7.608;2022-08-01T13:10:10;0.00;;;0.00;;
20679;SDS011;10499;47.494;7.608;2022-08-01T13:12:36;0.00;;;0.00;;
20679;SDS011;10499;47.494;7.608;2022-08-01T13:15:19;0.00;;;0.00;;
20679;SDS011;10499;47.494;7.608;2022-08-01T13:17:47;0.00;;;0.00;;
20679;SDS011;10499;47.494;7.608;2022-08-01T13:20:23;0.00;;;0.00;;
20679;SDS011;10499;47.494;7.608;2022-08-01T13:22:49;0.00;;;0.00;;
20679;SDS011;10499;47.494;7.608;2022-08-01T13:25:16;0.00;;;0.00;;
20679;SDS011;10499;47.494;7.608;2022-08-01T13:27:42;0.00;;;0.00;;
20679;SDS011;10499;47.494;7.608;2022-08-01T13:30:12;0.00;;;0.00;;
20679;SDS011;10499;47.494;7.608;2022-08-01T13:32:43;0.00;;;0.00;;
20679;SDS011;10499;47.494;7.608;2022-08-01T13:35:21;0.10;;;0.10;;
20679;SDS011;10499;47.494;7.608;2022-08-01T13:37:47;0.00;;;0.00;;
20679;SDS011;10499;47.494;7.608;2022-08-01T13:40:22;0.00;;;0.00;;
20679;SDS011;10499;47.494;7.608;2022-08-01T13:42:51;0.00;;;0.00;;
20679;SDS011;10499;47.494;7.608;2022-08-01T13:45:18;0.00;;;0.00;;
20679;SDS011;10499;47.494;7.608;2022-08-01T13:47:44;0.00;;;0.00;;
20679;SDS011;10499;47.494;7.608;2022-08-01T13:50:10;0.00;;;0.00;;
20679;SDS011;10499;47.494;7.608;2022-08-01T13:52:35;0.00;;;0.00;;
20679;SDS011;10499;47.494;7.608;2022-08-01T13:55:01;0.00;;;0.00;;
20679;SDS011;10499;47.494;7.608;2022-08-01T13:57:27;0.00;;;0.00;;
20679;SDS011;10499;47.494;7.608;2022-08-01T13:59:53;0.00;;;0.00;;
20679;SDS011;10499;47.494;7.608;2022-08-01T14:02:19;0.00;;;0.00;;
20679;SDS011;10499;47.494;7.608;2022-08-01T14:04:45;0.00;;;0.00;;
20679;SDS011;10499;47.494;7.608;2022-08-01T14:07:11;0.00;;;0.00;;
20679;SDS011;10499;47.494;7.608;2022-08-01T14:09:37;0.00;;;0.00;;
20679;SDS011;10499;47.494;7.608;2022-08-01T14:12:03;0.00;;;0.00;;
20679;SDS011;10499;47.494;7.608;2022-08-01T14:14:29;0.00;;;0.00;;
20679;SDS011;10499;47.494;7.608;2022-08-01T14:16:55;0.00;;;0.00;;
20679;SDS011;10499;47.494;7.608;2022-08-01T14:19:21;0.03;;;0.03;;
20679;SDS011;10499;47.494;7.608;2022-08-01T14:21:47;0.00;;;0.00;;
20679;SDS011;10499;47.494;7.608;2022-08-01T14:24:13;0.00;;;0.00;;
20679;SDS011;10499;47.494;7.608;2022-08-01T14:26:38;0.00;;;0.00;;
20679;SDS011;10499;47.494;7.608;2022-08-01T14:29:04;0.00;;;0.00;;
20679;SDS011;10499;47.494;7.608;2022-08-01T14:31:29;0.00;;;0.00;;
20679;SDS011;10499;47.494;7.608;2022-08-01T14:33:55;0.00;;;0.00;;
20679;SDS011;10499;47.494;7.608;2022-08-01T14:36:21;0.00;;;0.00;;
20679;SDS011;10499;47.494;7.608;2022-08-01T14:38:46;0.00;;;0.00;;
20679;SDS011;10499;47.494;7.608;2022-08-01T14:41:13;0.00;;;0.00;;
20679;SDS011;10499;47.494;7.608;2022-08-01T14:43:39;0.00;;;0.00;;
20679;SDS011;10499;47.494;7.608;2022-08-01T14:46:04;0.00;;;0.00;;
20679;SDS011;10499;47.494;7.608;2022-08-01T14:48:30;0.00;;;0.00;;
20679;SDS011;10499;47.494;7.608;2022-08-01T14:50:57;0.00;;;0.00;;
20679;SDS011;10499;47.494;7.608;2022-08-01T14:53:24;0.00;;;0.00;;
20679;SDS011;10499;47.494;7.608;2022-08-01T14:55:49;0.00;;;0.00;;
20679;SDS011;10499;47.494;7.608;2022-08-01T14:58:15;0.00;;;0.00;;
20679;SDS011;10499;47.494;7.608;2022-08-01T15:00:40;0.00;;;0.00;;
20679;SDS011;10499;47.494;7.608;2022-08-01T15:03:06;0.00;;;0.00;;
20679;SDS011;10499;47.494;7.608;2022-08-01T15:05:32;0.00;;;0.00;;
20679;SDS011;10499;47.494;7.608;2022-08-01T15:07:58;0.00;;;0.00;;
20679;SDS011;10499;47.494;7.608;2022-08-01T15:10:23;0.00;;;0.00;;
20679;SDS011;10499;47.494;7.608;2022-08-01T15:12:49;0.00;;;0.00;;
20679;SDS011;10499;47.494;7.608;2022-08-01T15:15:15;0.00;;;0.00;;
20679;SDS011;10499;47.494;7.608;2022-08-01T15:17:40;0.00;;;0.00;;
20679;SDS011;10499;47.494;7.608;2022-08-01T15:20:07;0.00;;;0.00;;
20679;SDS011;10499;47.494;7.608;2022-08-01T15:22:33;0.00;;;0.00;;
20679;SDS011;10499;47.494;7.608;2022-08-01T15:24:59;0.00;;;0.00;;
20679;SDS011;10499;47.494;7.608;2022-08-01T15:27:26;0.00;;;0.00;;
20679;SDS011;10499;47.494;7.608;2022-08-01T15:29:52;0.00;;;0.00;;